sensor_id;sensor_type;location;lat;lon;timestamp;P1;P2;P0
60816;PMS5003;51921;51.518;-3.188;2022-07-17T00:01:04;22;21;
60816;PMS5003;51921;51.518;-3.188;2022-07-17T00:03:28;22;21;
60816;PMS5003;51921;51.518;-3.188;2022-07-17T00:05:54;18;18;
60816;PMS5003;51921;51.518;-3.188;2022-07-17T00:08:19;18;17;
60816;PMS5003;51921;51.518;-3.188;2022-07-17T00:10:44;21;20;
60816;PMS5003;51921;51.518;-3.188;2022-07-17T00:13:10;24;20;
60816;PMS5003;51921;51.518;-3.188;2022-07-17T00:15:35;28;27;
60816;PMS5003;51921;51.518;-3.188;2022-07-17T00:18:01;25;25;
60816;PMS5003;51921;51.518;-3.188;2022-07-17T00:20:26;26;25;
60816;PMS5003;51921;51.518;-3.188;2022-07-17T00:22:52;19;19;
60816;PMS5003;51921;51.518;-3.188;2022-07-17T00:25:17;20;19;
60816;PMS5003;51921;51.518;-3.188;2022-07-17T00:27:42;21;20;
60816;PMS5003;51921;51.518;-3.188;2022-07-17T00:30:08;24;23;
60816;PMS5003;51921;51.518;-3.188;2022-07-17T00:32:33;19;19;
60816;PMS5003;51921;51.518;-3.188;2022-07-17T00:34:58;20;18;
60816;PMS5003;51921;51.518;-3.188;2022-07-17T00:37:24;17;17;
60816;PMS5003;51921;51.518;-3.188;2022-07-17T00:39:49;20;19;
60816;PMS5003;51921;51.518;-3.188;2022-07-17T00:42:15;17;16;
60816;PMS5003;51921;51.518;-3.188;2022-07-17T00:44:41;19;19;
60816;PMS5003;51921;51.518;-3.188;2022-07-17T00:47:09;18;18;
60816;PMS5003;51921;51.518;-3.188;2022-07-17T00:49:31;22;21;
60816;PMS5003;51921;51.518;-3.188;2022-07-17T00:51:56;21;20;
60816;PMS5003;51921;51.518;-3.188;2022-07-17T00:54:22;22;20;
60816;PMS5003;51921;51.518;-3.188;2022-07-17T00:56:47;21;19;
60816;PMS5003;51921;51.518;-3.188;2022-07-17T00:59:12;18;17;
60816;PMS5003;51921;51.518;-3.188;2022-07-17T01:01:38;18;17;
60816;PMS5003;51921;51.518;-3.188;2022-07-17T01:04:03;19;18;
60816;PMS5003;51921;51.518;-3.188;2022-07-17T01:06:28;19;18;
60816;PMS5003;51921;51.518;-3.188;2022-07-17T01:08:54;22;21;
60816;PMS5003;51921;51.518;-3.188;2022-07-17T01:11:19;19;18;
60816;PMS5003;51921;51.518;-3.188;2022-07-17T01:13:44;19;18;
60816;PMS5003;51921;51.518;-3.188;2022-07-17T01:16:10;23;21;
60816;PMS5003;51921;51.518;-3.188;2022-07-17T01:18:35;19;18;
60816;PMS5003;51921;51.518;-3.188;2022-07-17T01:21:02;18;18;
60816;PMS5003;51921;51.518;-3.188;2022-07-17T01:23:26;18;16;
60816;PMS5003;51921;51.518;-3.188;2022-07-17T01:25:51;21;19;
60816;PMS5003;51921;51.518;-3.188;2022-07-17T01:28:16;20;19;
60816;PMS5003;51921;51.518;-3.188;2022-07-17T01:30:45;14;14;
60816;PMS5003;51921;51.518;-3.188;2022-07-17T01:33:07;20;19;
60816;PMS5003;51921;51.518;-3.188;2022-07-17T01:35:33;22;20;
60816;PMS5003;51921;51.518;-3.188;2022-07-17T01:37:58;19;19;
60816;PMS5003;51921;51.518;-3.188;2022-07-17T01:40:24;20;19;
60816;PMS5003;51921;51.518;-3.188;2022-07-17T01:42:49;24;24;
60816;PMS5003;51921;51.518;-3.188;2022-07-17T01:45:15;17;17;
60816;PMS5003;51921;51.518;-3.188;2022-07-17T01:47:40;15;15;
60816;PMS5003;51921;51.518;-3.188;2022-07-17T01:50:06;19;18;
60816;PMS5003;51921;51.518;-3.188;2022-07-17T01:52:31;22;21;
60816;PMS5003;51921;51.518;-3.188;2022-07-17T01:54:56;18;18;
60816;PMS5003;51921;51.518;-3.188;2022-07-17T01:57:22;23;22;
60816;PMS5003;51921;51.518;-3.188;2022-07-17T01:59:47;18;18;
60816;PMS5003;51921;51.518;-3.188;2022-07-17T02:02:13;15;15;
60816;PMS5003;51921;51.518;-3.188;2022-07-17T02:04:38;15;14;
60816;PMS5003;51921;51.518;-3.188;2022-07-17T02:07:03;17;17;
60816;PMS5003;51921;51.518;-3.188;2022-07-17T02:09:29;14;14;
60816;PMS5003;51921;51.518;-3.188;2022-07-17T02:11:54;17;17;
60816;PMS5003;51921;51.518;-3.188;2022-07-17T02:14:19;15;15;
60816;PMS5003;51921;51.518;-3.188;2022-07-17T02:16:45;15;14;
60816;PMS5003;51921;51.518;-3.188;2022-07-17T02:19:10;14;14;
60816;PMS5003;51921;51.518;-3.188;2022-07-17T02:21:35;14;13;
60816;PMS5003;51921;51.518;-3.188;2022-07-17T02:24:01;15;15;
60816;PMS5003;51921;51.518;-3.188;2022-07-17T02:26:26;12;12;
60816;PMS5003;51921;51.518;-3.188;2022-07-17T02:28:52;14;14;
60816;PMS5003;51921;51.518;-3.188;2022-07-17T02:31:17;15;14;
60816;PMS5003;51921;51.518;-3.188;2022-07-17T02:33:42;14;14;
60816;PMS5003;51921;51.518;-3.188;2022-07-17T02:36:08;14;14;
60816;PMS5003;51921;51.518;-3.188;2022-07-17T02:38:33;13;12;
60816;PMS5003;51921;51.518;-3.188;2022-07-17T02:40:59;14;13;
60816;PMS5003;51921;51.518;-3.188;2022-07-17T02:43:24;13;12;
60816;PMS5003;51921;51.518;-3.188;2022-07-17T02:45:49;17;17;
60816;PMS5003;51921;51.518;-3.188;2022-07-17T02:48:14;11;11;
60816;PMS5003;51921;51.518;-3.188;2022-07-17T02:50:40;17;16;
60816;PMS5003;51921;51.518;-3.188;2022-07-17T02:53:05;17;16;
60816;PMS5003;51921;51.518;-3.188;2022-07-17T02:55:30;15;14;
60816;PMS5003;51921;51.518;-3.188;2022-07-17T02:57:55;14;14;
60816;PMS5003;51921;51.518;-3.188;2022-07-17T03:00:21;15;15;
60816;PMS5003;51921;51.518;-3.188;2022-07-17T03:02:46;16;15;
60816;PMS5003;51921;51.518;-3.188;2022-07-17T03:05:12;16;15;
60816;PMS5003;51921;51.518;-3.188;2022-07-17T03:07:37;17;16;
60816;PMS5003;51921;51.518;-3.188;2022-07-17T03:10:03;15;15;
60816;PMS5003;51921;51.518;-3.188;2022-07-17T03:12:28;14;13;
60816;PMS5003;51921;51.518;-3.188;2022-07-17T03:14:53;15;14;
60816;PMS5003;51921;51.518;-3.188;2022-07-17T03:17:19;17;16;
60816;PMS5003;51921;51.518;-3.188;2022-07-17T03:19:44;18;16;
60816;PMS5003;51921;51.518;-3.188;2022-07-17T03:22:09;16;15;
60816;PMS5003;51921;51.518;-3.188;2022-07-17T03:24:35;17;15;
60816;PMS5003;51921;51.518;-3.188;2022-07-17T03:27:00;15;15;
60816;PMS5003;51921;51.518;-3.188;2022-07-17T03:29:25;14;13;
60816;PMS5003;51921;51.518;-3.188;2022-07-17T03:31:51;17;16;
60816;PMS5003;51921;51.518;-3.188;2022-07-17T03:34:16;13;13;
60816;PMS5003;51921;51.518;-3.188;2022-07-17T03:36:41;14;13;
60816;PMS5003;51921;51.518;-3.188;2022-07-17T03:39:07;13;13;
60816;PMS5003;51921;51.518;-3.188;2022-07-17T03:41:32;14;14;
60816;PMS5003;51921;51.518;-3.188;2022-07-17T03:43:58;14;14;
60816;PMS5003;51921;51.518;-3.188;2022-07-17T03:46:23;14;14;
60816;PMS5003;51921;51.518;-3.188;2022-07-17T03:48:49;17;17;
60816;PMS5003;51921;51.518;-3.188;2022-07-17T03:51:14;13;13;
60816;PMS5003;51921;51.518;-3.188;2022-07-17T03:53:39;13;12;
60816;PMS5003;51921;51.518;-3.188;2022-07-17T03:56:05;18;16;
60816;PMS5003;51921;51.518;-3.188;2022-07-17T03:58:30;14;14;
60816;PMS5003;51921;51.518;-3.188;2022-07-17T04:00:55;16;15;
60816;PMS5003;51921;51.518;-3.188;2022-07-17T04:03:21;16;15;
60816;PMS5003;51921;51.518;-3.188;2022-07-17T04:05:46;14;14;
60816;PMS5003;51921;51.518;-3.188;2022-07-17T04:08:11;16;16;
60816;PMS5003;51921;51.518;-3.188;2022-07-17T04:10:37;11;11;
60816;PMS5003;51921;51.518;-3.188;2022-07-17T04:13:02;13;13;
60816;PMS5003;51921;51.518;-3.188;2022-07-17T04:15:27;15;15;
60816;PMS5003;51921;51.518;-3.188;2022-07-17T04:17:53;14;14;
60816;PMS5003;51921;51.518;-3.188;2022-07-17T04:20:18;13;12;
60816;PMS5003;51921;51.518;-3.188;2022-07-17T04:22:44;13;13;
60816;PMS5003;51921;51.518;-3.188;2022-07-17T04:25:09;13;13;
60816;PMS5003;51921;51.518;-3.188;2022-07-17T04:27:34;13;12;
60816;PMS5003;51921;51.518;-3.188;2022-07-17T04:30:00;18;16;
60816;PMS5003;51921;51.518;-3.188;2022-07-17T04:32:25;12;12;
60816;PMS5003;51921;51.518;-3.188;2022-07-17T04:34:51;11;11;
60816;PMS5003;51921;51.518;-3.188;2022-07-17T04:37:16;13;12;
60816;PMS5003;51921;51.518;-3.188;2022-07-17T04:39:41;12;12;
60816;PMS5003;51921;51.518;-3.188;2022-07-17T04:42:06;13;12;
60816;PMS5003;51921;51.518;-3.188;2022-07-17T04:44:32;12;12;
60816;PMS5003;51921;51.518;-3.188;2022-07-17T04:46:57;16;15;
60816;PMS5003;51921;51.518;-3.188;2022-07-17T04:49:23;14;12;
60816;PMS5003;51921;51.518;-3.188;2022-07-17T04:51:48;15;15;
60816;PMS5003;51921;51.518;-3.188;2022-07-17T04:54:14;12;12;
60816;PMS5003;51921;51.518;-3.188;2022-07-17T04:56:39;12;12;
60816;PMS5003;51921;51.518;-3.188;2022-07-17T04:59:04;15;14;
60816;PMS5003;51921;51.518;-3.188;2022-07-17T05:01:30;11;11;
60816;PMS5003;51921;51.518;-3.188;2022-07-17T05:03:55;27;27;
60816;PMS5003;51921;51.518;-3.188;2022-07-17T05:06:20;16;16;
60816;PMS5003;51921;51.518;-3.188;2022-07-17T05:08:46;13;13;
60816;PMS5003;51921;51.518;-3.188;2022-07-17T05:11:11;15;15;
60816;PMS5003;51921;51.518;-3.188;2022-07-17T05:13:37;13;13;
60816;PMS5003;51921;51.518;-3.188;2022-07-17T05:16:02;14;14;
60816;PMS5003;51921;51.518;-3.188;2022-07-17T05:18:29;13;13;
60816;PMS5003;51921;51.518;-3.188;2022-07-17T05:20:53;15;15;
60816;PMS5003;51921;51.518;-3.188;2022-07-17T05:23:18;12;12;
60816;PMS5003;51921;51.518;-3.188;2022-07-17T05:25:44;13;13;
60816;PMS5003;51921;51.518;-3.188;2022-07-17T05:28:09;17;15;
60816;PMS5003;51921;51.518;-3.188;2022-07-17T05:30:35;15;14;
60816;PMS5003;51921;51.518;-3.188;2022-07-17T05:33:00;14;13;
60816;PMS5003;51921;51.518;-3.188;2022-07-17T05:35:26;13;13;
60816;PMS5003;51921;51.518;-3.188;2022-07-17T05:37:51;16;14;
60816;PMS5003;51921;51.518;-3.188;2022-07-17T05:40:16;15;15;
60816;PMS5003;51921;51.518;-3.188;2022-07-17T05:42:41;12;11;
60816;PMS5003;51921;51.518;-3.188;2022-07-17T05:45:07;9;9;
60816;PMS5003;51921;51.518;-3.188;2022-07-17T05:47:32;10;10;
60816;PMS5003;51921;51.518;-3.188;2022-07-17T05:49:57;12;12;
60816;PMS5003;51921;51.518;-3.188;2022-07-17T05:52:23;13;13;
60816;PMS5003;51921;51.518;-3.188;2022-07-17T05:54:53;14;13;
60816;PMS5003;51921;51.518;-3.188;2022-07-17T05:57:14;10;10;
60816;PMS5003;51921;51.518;-3.188;2022-07-17T05:59:39;14;13;
60816;PMS5003;51921;51.518;-3.188;2022-07-17T06:02:04;11;11;
60816;PMS5003;51921;51.518;-3.188;2022-07-17T06:04:30;11;10;
60816;PMS5003;51921;51.518;-3.188;2022-07-17T06:06:55;13;12;
60816;PMS5003;51921;51.518;-3.188;2022-07-17T06:09:21;12;10;
60816;PMS5003;51921;51.518;-3.188;2022-07-17T06:11:46;9;9;
60816;PMS5003;51921;51.518;-3.188;2022-07-17T06:14:11;12;12;
60816;PMS5003;51921;51.518;-3.188;2022-07-17T06:16:37;10;10;
60816;PMS5003;51921;51.518;-3.188;2022-07-17T06:19:02;11;11;
60816;PMS5003;51921;51.518;-3.188;2022-07-17T06:21:28;10;10;
60816;PMS5003;51921;51.518;-3.188;2022-07-17T06:23:53;12;12;
60816;PMS5003;51921;51.518;-3.188;2022-07-17T06:26:21;14;12;
60816;PMS5003;51921;51.518;-3.188;2022-07-17T06:28:44;13;13;
60816;PMS5003;51921;51.518;-3.188;2022-07-17T06:31:09;12;12;
60816;PMS5003;51921;51.518;-3.188;2022-07-17T06:33:34;16;15;
60816;PMS5003;51921;51.518;-3.188;2022-07-17T06:36:00;16;15;
60816;PMS5003;51921;51.518;-3.188;2022-07-17T06:38:27;16;15;
60816;PMS5003;51921;51.518;-3.188;2022-07-17T06:40:50;15;15;
60816;PMS5003;51921;51.518;-3.188;2022-07-17T06:43:16;15;14;
60816;PMS5003;51921;51.518;-3.188;2022-07-17T06:45:41;16;16;
60816;PMS5003;51921;51.518;-3.188;2022-07-17T06:48:06;15;15;
60816;PMS5003;51921;51.518;-3.188;2022-07-17T06:50:32;13;13;
60816;PMS5003;51921;51.518;-3.188;2022-07-17T06:52:57;13;12;
60816;PMS5003;51921;51.518;-3.188;2022-07-17T06:55:23;16;16;
60816;PMS5003;51921;51.518;-3.188;2022-07-17T06:57:48;15;14;
60816;PMS5003;51921;51.518;-3.188;2022-07-17T07:00:14;16;15;
60816;PMS5003;51921;51.518;-3.188;2022-07-17T07:02:39;13;13;
60816;PMS5003;51921;51.518;-3.188;2022-07-17T07:05:05;14;12;
60816;PMS5003;51921;51.518;-3.188;2022-07-17T07:07:30;12;12;
60816;PMS5003;51921;51.518;-3.188;2022-07-17T07:09:55;12;12;
60816;PMS5003;51921;51.518;-3.188;2022-07-17T07:12:21;13;13;
60816;PMS5003;51921;51.518;-3.188;2022-07-17T07:14:46;11;10;
60816;PMS5003;51921;51.518;-3.188;2022-07-17T07:17:11;12;9;
60816;PMS5003;51921;51.518;-3.188;2022-07-17T07:19:37;11;10;
60816;PMS5003;51921;51.518;-3.188;2022-07-17T07:22:02;7;7;
60816;PMS5003;51921;51.518;-3.188;2022-07-17T07:24:28;8;8;
60816;PMS5003;51921;51.518;-3.188;2022-07-17T07:26:53;7;7;
60816;PMS5003;51921;51.518;-3.188;2022-07-17T07:29:18;7;7;
60816;PMS5003;51921;51.518;-3.188;2022-07-17T07:31:44;7;7;
60816;PMS5003;51921;51.518;-3.188;2022-07-17T07:34:09;8;8;
60816;PMS5003;51921;51.518;-3.188;2022-07-17T07:36:34;9;9;
60816;PMS5003;51921;51.518;-3.188;2022-07-17T07:39:00;10;10;
60816;PMS5003;51921;51.518;-3.188;2022-07-17T07:41:25;11;9;
60816;PMS5003;51921;51.518;-3.188;2022-07-17T07:43:51;11;11;
60816;PMS5003;51921;51.518;-3.188;2022-07-17T07:46:16;9;8;
60816;PMS5003;51921;51.518;-3.188;2022-07-17T07:48:41;7;7;
60816;PMS5003;51921;51.518;-3.188;2022-07-17T07:51:07;6;6;
60816;PMS5003;51921;51.518;-3.188;2022-07-17T07:53:32;6;6;
60816;PMS5003;51921;51.518;-3.188;2022-07-17T07:55:57;5;5;
60816;PMS5003;51921;51.518;-3.188;2022-07-17T07:58:25;7;6;
60816;PMS5003;51921;51.518;-3.188;2022-07-17T08:00:48;8;7;
60816;PMS5003;51921;51.518;-3.188;2022-07-17T08:03:13;7;6;
60816;PMS5003;51921;51.518;-3.188;2022-07-17T08:05:38;7;5;
60816;PMS5003;51921;51.518;-3.188;2022-07-17T08:08:04;6;6;
60816;PMS5003;51921;51.518;-3.188;2022-07-17T08:10:29;6;6;
60816;PMS5003;51921;51.518;-3.188;2022-07-17T08:12:54;7;7;
60816;PMS5003;51921;51.518;-3.188;2022-07-17T08:15:21;5;5;
60816;PMS5003;51921;51.518;-3.188;2022-07-17T08:17:48;7;5;
60816;PMS5003;51921;51.518;-3.188;2022-07-17T08:20:11;4;4;
60816;PMS5003;51921;51.518;-3.188;2022-07-17T08:22:36;4;4;
60816;PMS5003;51921;51.518;-3.188;2022-07-17T08:25:01;3;3;
60816;PMS5003;51921;51.518;-3.188;2022-07-17T08:27:27;6;6;
60816;PMS5003;51921;51.518;-3.188;2022-07-17T08:29:52;6;5;
60816;PMS5003;51921;51.518;-3.188;2022-07-17T08:32:19;7;7;
60816;PMS5003;51921;51.518;-3.188;2022-07-17T08:34:42;4;4;
60816;PMS5003;51921;51.518;-3.188;2022-07-17T08:37:07;6;6;
60816;PMS5003;51921;51.518;-3.188;2022-07-17T08:39:33;5;5;
60816;PMS5003;51921;51.518;-3.188;2022-07-17T08:41:58;6;5;
60816;PMS5003;51921;51.518;-3.188;2022-07-17T08:44:23;5;5;
60816;PMS5003;51921;51.518;-3.188;2022-07-17T08:46:49;7;7;
60816;PMS5003;51921;51.518;-3.188;2022-07-17T08:49:14;6;6;
60816;PMS5003;51921;51.518;-3.188;2022-07-17T08:51:39;6;6;
60816;PMS5003;51921;51.518;-3.188;2022-07-17T08:54:05;7;7;
60816;PMS5003;51921;51.518;-3.188;2022-07-17T08:56:32;9;8;
60816;PMS5003;51921;51.518;-3.188;2022-07-17T08:58:56;7;7;
60816;PMS5003;51921;51.518;-3.188;2022-07-17T09:01:21;6;6;
60816;PMS5003;51921;51.518;-3.188;2022-07-17T09:08:36;9;8;
60816;PMS5003;51921;51.518;-3.188;2022-07-17T09:11:02;6;6;
60816;PMS5003;51921;51.518;-3.188;2022-07-17T09:13:28;9;8;
60816;PMS5003;51921;51.518;-3.188;2022-07-17T09:15:53;8;7;
60816;PMS5003;51921;51.518;-3.188;2022-07-17T09:18:17;7;7;
60816;PMS5003;51921;51.518;-3.188;2022-07-17T09:20:43;6;6;
60816;PMS5003;51921;51.518;-3.188;2022-07-17T09:23:08;8;8;
60816;PMS5003;51921;51.518;-3.188;2022-07-17T09:25:34;8;8;
60816;PMS5003;51921;51.518;-3.188;2022-07-17T09:28:00;9;7;
60816;PMS5003;51921;51.518;-3.188;2022-07-17T09:30:24;6;5;
60816;PMS5003;51921;51.518;-3.188;2022-07-17T09:32:49;7;6;
60816;PMS5003;51921;51.518;-3.188;2022-07-17T09:35:14;8;7;
60816;PMS5003;51921;51.518;-3.188;2022-07-17T09:37:40;6;5;
60816;PMS5003;51921;51.518;-3.188;2022-07-17T09:40:09;8;7;
60816;PMS5003;51921;51.518;-3.188;2022-07-17T09:42:31;6;6;
60816;PMS5003;51921;51.518;-3.188;2022-07-17T09:44:57;7;7;
60816;PMS5003;51921;51.518;-3.188;2022-07-17T09:47:21;8;8;
60816;PMS5003;51921;51.518;-3.188;2022-07-17T09:49:48;9;9;
60816;PMS5003;51921;51.518;-3.188;2022-07-17T09:52:12;7;7;
60816;PMS5003;51921;51.518;-3.188;2022-07-17T09:54:37;9;8;
60816;PMS5003;51921;51.518;-3.188;2022-07-17T09:57:02;8;8;
60816;PMS5003;51921;51.518;-3.188;2022-07-17T09:59:28;8;8;
60816;PMS5003;51921;51.518;-3.188;2022-07-17T10:01:53;10;10;
60816;PMS5003;51921;51.518;-3.188;2022-07-17T10:04:18;9;8;
60816;PMS5003;51921;51.518;-3.188;2022-07-17T10:06:44;6;6;
60816;PMS5003;51921;51.518;-3.188;2022-07-17T10:09:09;8;8;
60816;PMS5003;51921;51.518;-3.188;2022-07-17T10:11:35;9;9;
60816;PMS5003;51921;51.518;-3.188;2022-07-17T10:14:02;8;8;
60816;PMS5003;51921;51.518;-3.188;2022-07-17T10:16:25;11;11;
60816;PMS5003;51921;51.518;-3.188;2022-07-17T10:18:50;10;9;
60816;PMS5003;51921;51.518;-3.188;2022-07-17T10:21:16;8;8;
60816;PMS5003;51921;51.518;-3.188;2022-07-17T10:23:41;9;9;
60816;PMS5003;51921;51.518;-3.188;2022-07-17T10:26:08;10;9;
60816;PMS5003;51921;51.518;-3.188;2022-07-17T10:28:40;9;8;
60816;PMS5003;51921;51.518;-3.188;2022-07-17T10:30:56;10;9;
60816;PMS5003;51921;51.518;-3.188;2022-07-17T10:33:22;8;8;
60816;PMS5003;51921;51.518;-3.188;2022-07-17T10:35:48;8;7;
60816;PMS5003;51921;51.518;-3.188;2022-07-17T10:38:13;7;7;
60816;PMS5003;51921;51.518;-3.188;2022-07-17T10:40:38;8;8;
60816;PMS5003;51921;51.518;-3.188;2022-07-17T10:43:03;9;9;
60816;PMS5003;51921;51.518;-3.188;2022-07-17T10:45:29;9;9;
60816;PMS5003;51921;51.518;-3.188;2022-07-17T10:47:55;9;9;
60816;PMS5003;51921;51.518;-3.188;2022-07-17T10:50:20;8;8;
60816;PMS5003;51921;51.518;-3.188;2022-07-17T10:52:44;10;10;
60816;PMS5003;51921;51.518;-3.188;2022-07-17T10:55:18;10;10;
60816;PMS5003;51921;51.518;-3.188;2022-07-17T10:57:38;10;10;
60816;PMS5003;51921;51.518;-3.188;2022-07-17T11:00:00;11;11;
60816;PMS5003;51921;51.518;-3.188;2022-07-17T11:02:27;9;9;
60816;PMS5003;51921;51.518;-3.188;2022-07-17T11:04:50;9;9;
60816;PMS5003;51921;51.518;-3.188;2022-07-17T11:07:16;11;10;
60816;PMS5003;51921;51.518;-3.188;2022-07-17T11:12:06;12;12;
60816;PMS5003;51921;51.518;-3.188;2022-07-17T11:14:31;9;9;
60816;PMS5003;51921;51.518;-3.188;2022-07-17T11:16:58;9;9;
60816;PMS5003;51921;51.518;-3.188;2022-07-17T11:19:22;11;11;
60816;PMS5003;51921;51.518;-3.188;2022-07-17T11:21:48;11;11;
60816;PMS5003;51921;51.518;-3.188;2022-07-17T11:24:13;10;10;
60816;PMS5003;51921;51.518;-3.188;2022-07-17T11:26:38;10;10;
60816;PMS5003;51921;51.518;-3.188;2022-07-17T11:29:03;10;10;
60816;PMS5003;51921;51.518;-3.188;2022-07-17T11:31:29;14;14;
60816;PMS5003;51921;51.518;-3.188;2022-07-17T11:33:54;8;8;
60816;PMS5003;51921;51.518;-3.188;2022-07-17T11:36:20;11;11;
60816;PMS5003;51921;51.518;-3.188;2022-07-17T11:38:44;11;11;
60816;PMS5003;51921;51.518;-3.188;2022-07-17T11:41:09;12;12;
60816;PMS5003;51921;51.518;-3.188;2022-07-17T11:43:39;14;14;
60816;PMS5003;51921;51.518;-3.188;2022-07-17T11:46:00;13;13;
60816;PMS5003;51921;51.518;-3.188;2022-07-17T11:48:26;12;12;
60816;PMS5003;51921;51.518;-3.188;2022-07-17T11:50:53;14;14;
60816;PMS5003;51921;51.518;-3.188;2022-07-17T11:53:16;14;14;
60816;PMS5003;51921;51.518;-3.188;2022-07-17T11:55:42;11;11;
60816;PMS5003;51921;51.518;-3.188;2022-07-17T11:58:07;13;12;
60816;PMS5003;51921;51.518;-3.188;2022-07-17T12:00:33;14;14;
60816;PMS5003;51921;51.518;-3.188;2022-07-17T12:02:58;12;12;
60816;PMS5003;51921;51.518;-3.188;2022-07-17T12:05:24;14;13;
60816;PMS5003;51921;51.518;-3.188;2022-07-17T12:07:48;13;12;
60816;PMS5003;51921;51.518;-3.188;2022-07-17T12:10:14;12;11;
60816;PMS5003;51921;51.518;-3.188;2022-07-17T12:12:39;24;19;
60816;PMS5003;51921;51.518;-3.188;2022-07-17T12:15:04;10;10;
60816;PMS5003;51921;51.518;-3.188;2022-07-17T12:20:01;9;9;
60816;PMS5003;51921;51.518;-3.188;2022-07-17T12:22:20;9;8;
60816;PMS5003;51921;51.518;-3.188;2022-07-17T12:24:46;10;10;
60816;PMS5003;51921;51.518;-3.188;2022-07-17T12:27:11;10;10;
60816;PMS5003;51921;51.518;-3.188;2022-07-17T12:29:37;13;13;
60816;PMS5003;51921;51.518;-3.188;2022-07-17T12:32:03;11;11;
60816;PMS5003;51921;51.518;-3.188;2022-07-17T12:34:27;8;8;
60816;PMS5003;51921;51.518;-3.188;2022-07-17T12:36:52;9;9;
60816;PMS5003;51921;51.518;-3.188;2022-07-17T12:39:17;9;9;
60816;PMS5003;51921;51.518;-3.188;2022-07-17T12:41:43;9;8;
60816;PMS5003;51921;51.518;-3.188;2022-07-17T12:44:11;9;9;
60816;PMS5003;51921;51.518;-3.188;2022-07-17T12:46:33;9;9;
60816;PMS5003;51921;51.518;-3.188;2022-07-17T12:48:58;9;9;
60816;PMS5003;51921;51.518;-3.188;2022-07-17T12:51:24;13;12;
60816;PMS5003;51921;51.518;-3.188;2022-07-17T12:53:49;7;7;
60816;PMS5003;51921;51.518;-3.188;2022-07-17T12:56:17;17;17;
60816;PMS5003;51921;51.518;-3.188;2022-07-17T12:58:40;10;9;
60816;PMS5003;51921;51.518;-3.188;2022-07-17T13:01:05;8;7;
60816;PMS5003;51921;51.518;-3.188;2022-07-17T13:03:30;8;8;
60816;PMS5003;51921;51.518;-3.188;2022-07-17T13:05:55;9;8;
60816;PMS5003;51921;51.518;-3.188;2022-07-17T13:08:21;7;7;
60816;PMS5003;51921;51.518;-3.188;2022-07-17T13:10:46;12;11;
60816;PMS5003;51921;51.518;-3.188;2022-07-17T13:13:11;10;10;
60816;PMS5003;51921;51.518;-3.188;2022-07-17T13:15:37;6;6;
60816;PMS5003;51921;51.518;-3.188;2022-07-17T13:18:02;7;7;
60816;PMS5003;51921;51.518;-3.188;2022-07-17T13:20:28;7;7;
60816;PMS5003;51921;51.518;-3.188;2022-07-17T13:22:53;6;6;
60816;PMS5003;51921;51.518;-3.188;2022-07-17T13:25:18;7;7;
60816;PMS5003;51921;51.518;-3.188;2022-07-17T13:27:46;7;7;
60816;PMS5003;51921;51.518;-3.188;2022-07-17T13:30:11;7;7;
60816;PMS5003;51921;51.518;-3.188;2022-07-17T13:32:34;6;6;
60816;PMS5003;51921;51.518;-3.188;2022-07-17T13:34:59;7;7;
60816;PMS5003;51921;51.518;-3.188;2022-07-17T13:37:24;7;7;
60816;PMS5003;51921;51.518;-3.188;2022-07-17T13:39:50;7;7;
60816;PMS5003;51921;51.518;-3.188;2022-07-17T13:42:15;6;6;
60816;PMS5003;51921;51.518;-3.188;2022-07-17T13:44:40;6;6;
60816;PMS5003;51921;51.518;-3.188;2022-07-17T13:47:06;7;7;
60816;PMS5003;51921;51.518;-3.188;2022-07-17T13:49:31;7;6;
60816;PMS5003;51921;51.518;-3.188;2022-07-17T13:51:56;6;6;
60816;PMS5003;51921;51.518;-3.188;2022-07-17T13:54:21;7;7;
60816;PMS5003;51921;51.518;-3.188;2022-07-17T13:56:49;7;7;
60816;PMS5003;51921;51.518;-3.188;2022-07-17T13:59:12;7;7;
60816;PMS5003;51921;51.518;-3.188;2022-07-17T14:01:37;6;5;
60816;PMS5003;51921;51.518;-3.188;2022-07-17T14:04:05;5;5;
60816;PMS5003;51921;51.518;-3.188;2022-07-17T14:06:29;6;5;
60816;PMS5003;51921;51.518;-3.188;2022-07-17T14:08:55;5;5;
60816;PMS5003;51921;51.518;-3.188;2022-07-17T14:11:18;9;7;
60816;PMS5003;51921;51.518;-3.188;2022-07-17T14:13:43;6;6;
60816;PMS5003;51921;51.518;-3.188;2022-07-17T14:16:09;7;6;
60816;PMS5003;51921;51.518;-3.188;2022-07-17T14:18:34;6;6;
60816;PMS5003;51921;51.518;-3.188;2022-07-17T14:20:59;6;6;
60816;PMS5003;51921;51.518;-3.188;2022-07-17T14:23:26;4;4;
60816;PMS5003;51921;51.518;-3.188;2022-07-17T14:25:50;5;5;
60816;PMS5003;51921;51.518;-3.188;2022-07-17T14:28:15;8;8;
60816;PMS5003;51921;51.518;-3.188;2022-07-17T14:30:40;7;7;
60816;PMS5003;51921;51.518;-3.188;2022-07-17T14:33:06;6;6;
60816;PMS5003;51921;51.518;-3.188;2022-07-17T14:35:31;6;6;
60816;PMS5003;51921;51.518;-3.188;2022-07-17T14:37:56;8;7;
60816;PMS5003;51921;51.518;-3.188;2022-07-17T14:40:22;5;5;
60816;PMS5003;51921;51.518;-3.188;2022-07-17T14:42:47;7;7;
60816;PMS5003;51921;51.518;-3.188;2022-07-17T14:45:12;4;4;
60816;PMS5003;51921;51.518;-3.188;2022-07-17T14:47:37;6;5;
60816;PMS5003;51921;51.518;-3.188;2022-07-17T14:50:06;6;6;
60816;PMS5003;51921;51.518;-3.188;2022-07-17T14:52:28;5;5;
60816;PMS5003;51921;51.518;-3.188;2022-07-17T14:54:53;5;4;
60816;PMS5003;51921;51.518;-3.188;2022-07-17T14:57:18;6;6;
60816;PMS5003;51921;51.518;-3.188;2022-07-17T14:59:46;6;5;
60816;PMS5003;51921;51.518;-3.188;2022-07-17T15:02:09;6;5;
60816;PMS5003;51921;51.518;-3.188;2022-07-17T15:04:34;6;6;
60816;PMS5003;51921;51.518;-3.188;2022-07-17T15:06:59;7;7;
60816;PMS5003;51921;51.518;-3.188;2022-07-17T15:09:25;5;5;
60816;PMS5003;51921;51.518;-3.188;2022-07-17T15:11:50;6;6;
60816;PMS5003;51921;51.518;-3.188;2022-07-17T15:14:15;8;7;
60816;PMS5003;51921;51.518;-3.188;2022-07-17T15:16:40;5;5;
60816;PMS5003;51921;51.518;-3.188;2022-07-17T15:19:06;6;6;
60816;PMS5003;51921;51.518;-3.188;2022-07-17T15:21:31;5;5;
60816;PMS5003;51921;51.518;-3.188;2022-07-17T15:23:56;6;6;
60816;PMS5003;51921;51.518;-3.188;2022-07-17T15:26:24;5;5;
60816;PMS5003;51921;51.518;-3.188;2022-07-17T15:28:47;6;6;
60816;PMS5003;51921;51.518;-3.188;2022-07-17T15:31:15;5;5;
60816;PMS5003;51921;51.518;-3.188;2022-07-17T15:33:37;6;5;
60816;PMS5003;51921;51.518;-3.188;2022-07-17T15:36:03;6;6;
60816;PMS5003;51921;51.518;-3.188;2022-07-17T15:38:29;6;6;
60816;PMS5003;51921;51.518;-3.188;2022-07-17T15:40:53;4;4;
60816;PMS5003;51921;51.518;-3.188;2022-07-17T15:43:19;6;5;
60816;PMS5003;51921;51.518;-3.188;2022-07-17T15:45:44;5;5;
60816;PMS5003;51921;51.518;-3.188;2022-07-17T15:48:09;6;6;
60816;PMS5003;51921;51.518;-3.188;2022-07-17T15:50:34;5;5;
60816;PMS5003;51921;51.518;-3.188;2022-07-17T15:53:00;6;6;
60816;PMS5003;51921;51.518;-3.188;2022-07-17T15:55:25;7;7;
60816;PMS5003;51921;51.518;-3.188;2022-07-17T15:57:50;6;6;
60816;PMS5003;51921;51.518;-3.188;2022-07-17T16:00:15;8;8;
60816;PMS5003;51921;51.518;-3.188;2022-07-17T16:02:41;6;6;
60816;PMS5003;51921;51.518;-3.188;2022-07-17T16:05:06;6;6;
60816;PMS5003;51921;51.518;-3.188;2022-07-17T16:07:31;6;5;
60816;PMS5003;51921;51.518;-3.188;2022-07-17T16:09:56;5;5;
60816;PMS5003;51921;51.518;-3.188;2022-07-17T16:12:22;6;6;